Gabes, Tunisia

8:48 PM CET on July 31, 2014 (GMT +0100)
Zarzis (DTTJ) Elev 10 ft | 33.88 °N, 10.78 °E | Change Station

Current weather conditions updated 18 minutes ago

Clear
Clear
81 °F
Feels Like 82 °F
N
12
Wind Variable Wind from ESE

Tomorrow is forecast to be Warmer than today.

Today
High -- | Low -- °F
--% Chance of Precip.
Yesterday
High -- | Low -- °F
Precip. -- in
5:30 AM 7:21 PM
Waxing Crescent, 20% visible
Pressure 29.89 in
Visibility -9999.0 miles
Clouds
Heat Index 82 °F
Dew Point 64 °F
Humidity 58%
Rainfall 0.00 in
Snow Depth Not available.
UV Not available.
Pollen Not available.
Air Quality Not available.
Flu Activity Not available.
METAR DTTJ 311930Z 11010KT CAVOK 27/18 Q1012 NOSIG

More Conditions Fewer Conditions

Pressure 29.89 in
Visibility -9999.0 miles
Clouds
Heat Index 82 °F
Dew Point 64 °F
Humidity 58%
Rainfall 0.00 in
Snow Depth Not available.
UV Not available.
Pollen Not available.
Air Quality Not available.
Flu Activity Not available.
METAR DTTJ 311930Z 11010KT CAVOK 27/18 Q1012 NOSIG

More Conditions Fewer Conditions

10-Day Weather Forecast

Almanac

Astronomy

Jul. 31, 2014 Rise Set
Actual Time 5:30 AM CET 7:21 PM CET
Civil Twilight 5:02 AM CET 7:48 PM CET
Nautical Twilight 4:29 AM CET 8:21 PM CET
Astronomical Twilight 3:54 AM CET 8:56 PM CET
Moon 9:28 AM CET 9:40 PM CET
Length of Visible Light 14h 45m
Length of Day
13h 50m
Tomorrow will be 1m 33s shorter.
Waxing Crescent, 20% of the Moon is Illuminated
Today
Waxing Crescent
Aug 3
First Quarter
Aug 10
Full
Aug 17
Last Quarter
Aug 25
New

Today's Extremes

Country Highs Country Lows

Community

WunderPhotos

Upload Photos

1,739,438 photos uploaded!

Nearby

Snow Depth

Not available.

Earthquake Activity

City Distance Mag. Time & Date
No recent earthquake activity has been reported nearby.
Minimum magnitude displayed is 2.5.

Coastal Water Temperatures

Place Temperature
No Stations Reporting

Nearby Weather Stations

There are no personal weather stations in this area.